sensor_id;sensor_type;location;lat;lon;timestamp;pressure;altitude;pressure_sealevel;temperature;humidity
25610;BME280;13479;49.044;8.716;2023-05-08T04:00:56;99429.03;;;15.69;100.00
25610;BME280;13479;49.044;8.716;2023-05-08T04:03:53;99429.88;;;15.69;100.00
25610;BME280;13479;49.044;8.716;2023-05-08T04:09:19;99439.19;;;15.83;100.00
25610;BME280;13479;49.044;8.716;2023-05-08T04:14:48;99436.22;;;15.86;100.00
25610;BME280;13479;49.044;8.716;2023-05-08T04:17:19;99443.63;;;15.93;100.00
25610;BME280;13479;49.044;8.716;2023-05-08T04:19:51;99448.69;;;15.96;100.00
25610;BME280;13479;49.044;8.716;2023-05-08T04:22:23;99462.28;;;16.02;100.00
25610;BME280;13479;49.044;8.716;2023-05-08T04:24:50;99462.28;;;16.02;100.00
25610;BME280;13479;49.044;8.716;2023-05-08T04:27:19;99464.16;;;16.10;100.00
25610;BME280;13479;49.044;8.716;2023-05-08T04:29:45;99464.00;;;16.12;100.00
25610;BME280;13479;49.044;8.716;2023-05-08T04:32:10;99457.31;;;16.16;100.00
25610;BME280;13479;49.044;8.716;2023-05-08T04:34:35;99451.31;;;16.14;100.00
25610;BME280;13479;49.044;8.716;2023-05-08T04:37:01;99451.34;;;16.22;100.00
25610;BME280;13479;49.044;8.716;2023-05-08T04:39:27;99439.59;;;16.15;100.00
25610;BME280;13479;49.044;8.716;2023-05-08T04:41:53;99455.06;;;16.29;100.00
25610;BME280;13479;49.044;8.716;2023-05-08T04:44:19;99450.69;;;16.28;100.00
25610;BME280;13479;49.044;8.716;2023-05-08T04:46:45;99446.22;;;16.37;98.59
25610;BME280;13479;49.044;8.716;2023-05-08T04:49:10;99440.56;;;16.40;98.02
25610;BME280;13479;49.044;8.716;2023-05-08T04:51:35;99441.03;;;16.35;98.06
25610;BME280;13479;49.044;8.716;2023-05-08T04:54:01;99433.50;;;16.31;98.37
25610;BME280;13479;49.044;8.716;2023-05-08T04:56:26;99422.06;;;16.20;99.33
25610;BME280;13479;49.044;8.716;2023-05-08T04:58:51;99414.88;;;16.29;99.16
25610;BME280;13479;49.044;8.716;2023-05-08T05:01:16;99427.78;;;16.34;99.00
25610;BME280;13479;49.044;8.716;2023-05-08T05:03:42;99441.03;;;16.35;98.78
25610;BME280;13479;49.044;8.716;2023-05-08T05:06:07;99432.31;;;16.33;99.24
25610;BME280;13479;49.044;8.716;2023-05-08T05:08:32;99437.03;;;16.40;99.56
25610;BME280;13479;49.044;8.716;2023-05-08T05:10:57;99430.34;;;16.44;99.80
25610;BME280;13479;49.044;8.716;2023-05-08T05:13:23;99438.09;;;16.47;99.58
25610;BME280;13479;49.044;8.716;2023-05-08T05:15:48;99433.56;;;16.47;99.88
25610;BME280;13479;49.044;8.716;2023-05-08T05:18:15;99443.09;;;16.50;99.89
25610;BME280;13479;49.044;8.716;2023-05-08T05:20:40;99457.75;;;16.64;98.81
25610;BME280;13479;49.044;8.716;2023-05-08T05:23:06;99473.16;;;16.62;98.07
25610;BME280;13479;49.044;8.716;2023-05-08T05:25:31;99463.59;;;16.59;98.43
25610;BME280;13479;49.044;8.716;2023-05-08T05:27:56;99455.19;;;16.54;98.95
25610;BME280;13479;49.044;8.716;2023-05-08T05:30:21;99444.34;;;16.64;98.74
25610;BME280;13479;49.044;8.716;2023-05-08T05:32:47;99465.59;;;16.57;98.76
25610;BME280;13479;49.044;8.716;2023-05-08T05:35:12;99459.59;;;16.63;98.80
25610;BME280;13479;49.044;8.716;2023-05-08T05:37:38;99489.13;;;16.72;96.93
25610;BME280;13479;49.044;8.716;2023-05-08T05:40:03;99477.91;;;16.76;94.42
25610;BME280;13479;49.044;8.716;2023-05-08T05:42:29;99464.66;;;16.75;93.66
25610;BME280;13479;49.044;8.716;2023-05-08T05:44:54;99442.19;;;16.67;94.08
25610;BME280;13479;49.044;8.716;2023-05-08T05:47:23;99428.56;;;16.52;95.33
25610;BME280;13479;49.044;8.716;2023-05-08T05:49:48;99422.06;;;16.63;95.43
25610;BME280;13479;49.044;8.716;2023-05-08T05:52:13;99438.31;;;16.62;95.42
25610;BME280;13479;49.044;8.716;2023-05-08T05:54:39;99422.03;;;16.55;95.98
25610;BME280;13479;49.044;8.716;2023-05-08T05:57:05;99421.34;;;16.53;97.08
25610;BME280;13479;49.044;8.716;2023-05-08T05:59:31;99436.81;;;16.59;97.00
25610;BME280;13479;49.044;8.716;2023-05-08T06:01:57;99461.28;;;16.64;95.99
25610;BME280;13479;49.044;8.716;2023-05-08T06:04:22;99457.53;;;16.49;96.56
25610;BME280;13479;49.044;8.716;2023-05-08T06:06:47;99459.94;;;16.60;95.77
25610;BME280;13479;49.044;8.716;2023-05-08T06:09:13;99477.50;;;16.55;95.81
25610;BME280;13479;49.044;8.716;2023-05-08T06:11:38;99452.53;;;16.62;96.13
25610;BME280;13479;49.044;8.716;2023-05-08T06:14:03;99451.13;;;16.50;97.17
25610;BME280;13479;49.044;8.716;2023-05-08T06:16:28;99445.47;;;16.53;98.36
25610;BME280;13479;49.044;8.716;2023-05-08T06:18:55;99462.25;;;16.63;98.21
25610;BME280;13479;49.044;8.716;2023-05-08T06:21:20;99462.13;;;16.65;98.49
25610;BME280;13479;49.044;8.716;2023-05-08T06:23:45;99492.16;;;16.77;96.68
25610;BME280;13479;49.044;8.716;2023-05-08T06:26:11;99493.53;;;16.81;96.30
25610;BME280;13479;49.044;8.716;2023-05-08T06:28:36;99503.09;;;16.92;94.94
25610;BME280;13479;49.044;8.716;2023-05-08T06:31:01;99481.31;;;16.87;93.10
25610;BME280;13479;49.044;8.716;2023-05-08T06:33:26;99470.91;;;16.83;92.98
25610;BME280;13479;49.044;8.716;2023-05-08T06:35:52;99463.06;;;16.90;91.21
25610;BME280;13479;49.044;8.716;2023-05-08T06:38:17;99446.94;;;16.82;92.13
25610;BME280;13479;49.044;8.716;2023-05-08T06:40:43;99443.38;;;16.73;92.55
25610;BME280;13479;49.044;8.716;2023-05-08T06:43:09;99413.00;;;16.56;94.47
25610;BME280;13479;49.044;8.716;2023-05-08T06:45:35;99438.84;;;16.74;93.37
25610;BME280;13479;49.044;8.716;2023-05-08T06:48:00;99425.09;;;16.68;94.50
25610;BME280;13479;49.044;8.716;2023-05-08T06:50:25;99425.41;;;16.65;94.93
25610;BME280;13479;49.044;8.716;2023-05-08T06:52:51;99458.28;;;16.76;94.15
25610;BME280;13479;49.044;8.716;2023-05-08T06:55:16;99467.41;;;16.83;93.35
25610;BME280;13479;49.044;8.716;2023-05-08T06:57:41;99483.63;;;16.81;93.09
25610;BME280;13479;49.044;8.716;2023-05-08T07:00:07;99481.44;;;16.85;92.84
25610;BME280;13479;49.044;8.716;2023-05-08T07:02:32;99470.91;;;16.83;92.55
25610;BME280;13479;49.044;8.716;2023-05-08T07:04:58;99488.88;;;16.91;92.05
25610;BME280;13479;49.044;8.716;2023-05-08T07:07:23;99462.84;;;16.83;92.84
25610;BME280;13479;49.044;8.716;2023-05-08T07:09:48;99457.31;;;16.85;93.44
25610;BME280;13479;49.044;8.716;2023-05-08T07:12:14;99480.13;;;16.89;91.93
25610;BME280;13479;49.044;8.716;2023-05-08T07:14:41;99479.19;;;16.98;91.58
25610;BME280;13479;49.044;8.716;2023-05-08T07:17:07;99479.13;;;16.90;91.75
25610;BME280;13479;49.044;8.716;2023-05-08T07:19:34;99459.06;;;16.94;92.03
25610;BME280;13479;49.044;8.716;2023-05-08T07:22:00;99461.72;;;16.94;92.08
25610;BME280;13479;49.044;8.716;2023-05-08T07:24:25;99455.00;;;16.90;93.12
25610;BME280;13479;49.044;8.716;2023-05-08T07:26:50;99481.88;;;17.07;91.37
25610;BME280;13479;49.044;8.716;2023-05-08T07:29:16;99475.19;;;17.03;92.10
25610;BME280;13479;49.044;8.716;2023-05-08T07:31:41;99499.03;;;17.14;89.72
25610;BME280;13479;49.044;8.716;2023-05-08T07:34:06;99460.44;;;17.07;90.43
25610;BME280;13479;49.044;8.716;2023-05-08T07:36:32;99475.56;;;17.16;90.33
25610;BME280;13479;49.044;8.716;2023-05-08T07:38:57;99479.94;;;17.25;90.20
25610;BME280;13479;49.044;8.716;2023-05-08T07:41:22;99498.06;;;17.40;87.85
25610;BME280;13479;49.044;8.716;2023-05-08T07:43:47;99469.56;;;17.39;88.36
25610;BME280;13479;49.044;8.716;2023-05-08T07:46:19;99468.91;;;17.45;88.24
25610;BME280;13479;49.044;8.716;2023-05-08T07:48:45;99464.88;;;17.49;88.45
25610;BME280;13479;49.044;8.716;2023-05-08T07:51:11;99473.94;;;17.56;87.65
25610;BME280;13479;49.044;8.716;2023-05-08T07:53:37;99465.56;;;17.59;88.02
25610;BME280;13479;49.044;8.716;2023-05-08T07:56:02;99469.25;;;17.75;87.77
25610;BME280;13479;49.044;8.716;2023-05-08T07:58:27;99469.56;;;17.88;86.96
25610;BME280;13479;49.044;8.716;2023-05-08T08:00:53;99459.19;;;17.94;87.10
25610;BME280;13479;49.044;8.716;2023-05-08T08:03:18;99461.53;;;18.05;86.76
25610;BME280;13479;49.044;8.716;2023-05-08T08:05:43;99474.63;;;18.16;86.48
25610;BME280;13479;49.044;8.716;2023-05-08T08:08:08;99488.50;;;18.36;83.24
25610;BME280;13479;49.044;8.716;2023-05-08T08:10:34;99444.69;;;18.36;83.13
25610;BME280;13479;49.044;8.716;2023-05-08T08:12:59;99418.47;;;18.38;84.09
25610;BME280;13479;49.044;8.716;2023-05-08T08:15:26;99452.50;;;18.54;82.19
25610;BME280;13479;49.044;8.716;2023-05-08T08:17:53;99418.44;;;18.46;83.75
25610;BME280;13479;49.044;8.716;2023-05-08T08:20:18;99422.06;;;18.62;83.04
25610;BME280;13479;49.044;8.716;2023-05-08T08:22:43;99452.97;;;18.66;82.94
25610;BME280;13479;49.044;8.716;2023-05-08T08:25:09;99454.75;;;18.82;82.33
25610;BME280;13479;49.044;8.716;2023-05-08T08:27:34;99433.00;;;18.92;83.11
25610;BME280;13479;49.044;8.716;2023-05-08T08:29:59;99435.63;;;19.08;83.09
25610;BME280;13479;49.044;8.716;2023-05-08T08:32:24;99447.03;;;19.19;82.53
25610;BME280;13479;49.044;8.716;2023-05-08T08:34:50;99452.69;;;19.24;82.92
25610;BME280;13479;49.044;8.716;2023-05-08T08:37:15;99472.06;;;19.42;81.01
25610;BME280;13479;49.044;8.716;2023-05-08T08:39:40;99450.13;;;19.31;81.38
25610;BME280;13479;49.044;8.716;2023-05-08T08:42:06;99458.53;;;19.36;80.76
25610;BME280;13479;49.044;8.716;2023-05-08T08:44:31;99457.66;;;19.35;80.46
25610;BME280;13479;49.044;8.716;2023-05-08T08:46:57;99464.41;;;19.31;79.30
25610;BME280;13479;49.044;8.716;2023-05-08T08:49:27;99434.88;;;19.23;79.90
25610;BME280;13479;49.044;8.716;2023-05-08T08:51:57;99436.91;;;19.21;80.20
25610;BME280;13479;49.044;8.716;2023-05-08T08:54:23;99444.34;;;19.19;79.69
25610;BME280;13479;49.044;8.716;2023-05-08T08:56:53;99466.09;;;19.32;78.69
25610;BME280;13479;49.044;8.716;2023-05-08T08:59:20;99446.84;;;19.20;78.66
25610;BME280;13479;49.044;8.716;2023-05-08T09:01:49;99431.22;;;19.16;79.02
25610;BME280;13479;49.044;8.716;2023-05-08T09:04:17;99446.03;;;19.11;78.50
25610;BME280;13479;49.044;8.716;2023-05-08T09:06:43;99455.31;;;19.09;78.45
25610;BME280;13479;49.044;8.716;2023-05-08T09:09:11;99447.53;;;19.14;78.72
25610;BME280;13479;49.044;8.716;2023-05-08T09:11:37;99454.13;;;19.11;78.32
25610;BME280;13479;49.044;8.716;2023-05-08T09:14:03;99458.97;;;19.16;78.35
25610;BME280;13479;49.044;8.716;2023-05-08T09:16:29;99436.75;;;19.14;78.85
25610;BME280;13479;49.044;8.716;2023-05-08T09:18:54;99415.75;;;19.18;79.78
25610;BME280;13479;49.044;8.716;2023-05-08T09:21:19;99413.53;;;19.21;79.63
25610;BME280;13479;49.044;8.716;2023-05-08T09:23:57;99469.69;;;19.24;77.83
25610;BME280;13479;49.044;8.716;2023-05-08T09:26:33;99464.59;;;19.29;78.15
25610;BME280;13479;49.044;8.716;2023-05-08T09:31:45;99462.75;;;19.30;78.14
25610;BME280;13479;49.044;8.716;2023-05-08T09:34:30;99480.88;;;19.36;76.66
25610;BME280;13479;49.044;8.716;2023-05-08T09:37:10;99471.13;;;19.35;76.09
25610;BME280;13479;49.044;8.716;2023-05-08T09:39:36;99440.72;;;19.26;77.29
25610;BME280;13479;49.044;8.716;2023-05-08T09:42:05;99442.88;;;19.31;77.08
25610;BME280;13479;49.044;8.716;2023-05-08T09:44:47;99473.53;;;19.30;76.09
25610;BME280;13479;49.044;8.716;2023-05-08T09:47:18;99467.84;;;19.25;76.30
25610;BME280;13479;49.044;8.716;2023-05-08T09:50:06;99436.59;;;19.16;76.80
25610;BME280;13479;49.044;8.716;2023-05-08T09:52:33;99449.06;;;19.08;76.45
25610;BME280;13479;49.044;8.716;2023-05-08T09:55:06;99440.41;;;18.98;77.08
25610;BME280;13479;49.044;8.716;2023-05-08T09:57:34;99423.44;;;18.89;77.54
25610;BME280;13479;49.044;8.716;2023-05-08T10:00:10;99400.13;;;18.81;78.46
25610;BME280;13479;49.044;8.716;2023-05-08T10:02:38;99399.78;;;18.85;79.08
25610;BME280;13479;49.044;8.716;2023-05-08T10:05:22;99400.41;;;18.87;79.89
25610;BME280;13479;49.044;8.716;2023-05-08T10:07:48;99447.91;;;19.11;78.47
25610;BME280;13479;49.044;8.716;2023-05-08T10:10:13;99512.63;;;19.18;76.48
25610;BME280;13479;49.044;8.716;2023-05-08T10:12:39;99468.91;;;19.16;77.49
25610;BME280;13479;49.044;8.716;2023-05-08T10:15:06;99489.69;;;19.30;76.58
25610;BME280;13479;49.044;8.716;2023-05-08T10:17:39;99487.22;;;19.43;76.66
25610;BME280;13479;49.044;8.716;2023-05-08T10:20:07;99475.88;;;19.56;76.66
25610;BME280;13479;49.044;8.716;2023-05-08T10:22:36;99486.69;;;19.71;76.47
25610;BME280;13479;49.044;8.716;2023-05-08T10:25:06;99421.97;;;19.80;77.98
25610;BME280;13479;49.044;8.716;2023-05-08T10:27:41;99438.50;;;20.00;77.06
25610;BME280;13479;49.044;8.716;2023-05-08T10:30:12;99491.19;;;20.17;75.96
25610;BME280;13479;49.044;8.716;2023-05-08T10:32:42;99507.03;;;20.35;74.65
25610;BME280;13479;49.044;8.716;2023-05-08T10:35:09;99481.63;;;20.45;75.14
25610;BME280;13479;49.044;8.716;2023-05-08T10:37:36;99494.31;;;20.59;74.51
25610;BME280;13479;49.044;8.716;2023-05-08T10:40:03;99489.09;;;20.73;73.55
25610;BME280;13479;49.044;8.716;2023-05-08T10:42:30;99486.03;;;20.91;73.05
25610;BME280;13479;49.044;8.716;2023-05-08T10:44:57;99469.69;;;21.14;73.04
25610;BME280;13479;49.044;8.716;2023-05-08T10:47:39;99484.06;;;21.36;71.90
25610;BME280;13479;49.044;8.716;2023-05-08T10:53:19;99465.69;;;21.68;66.83
25610;BME280;13479;49.044;8.716;2023-05-08T10:55:49;99463.88;;;21.75;66.11
25610;BME280;13479;49.044;8.716;2023-05-08T10:58:32;99434.53;;;21.94;66.44
25610;BME280;13479;49.044;8.716;2023-05-08T11:03:37;99450.47;;;22.46;63.69
25610;BME280;13479;49.044;8.716;2023-05-08T11:06:03;99447.28;;;22.71;61.37
25610;BME280;13479;49.044;8.716;2023-05-08T11:08:29;99441.91;;;22.77;60.49
25610;BME280;13479;49.044;8.716;2023-05-08T11:13:57;99408.66;;;23.04;59.54
25610;BME280;13479;49.044;8.716;2023-05-08T11:17:25;99413.53;;;23.28;58.85
25610;BME280;13479;49.044;8.716;2023-05-08T11:19:31;99432.94;;;23.59;56.64
25610;BME280;13479;49.044;8.716;2023-05-08T11:22:20;99417.50;;;23.53;56.62
25610;BME280;13479;49.044;8.716;2023-05-08T11:24:48;99409.38;;;23.53;56.76
25610;BME280;13479;49.044;8.716;2023-05-08T11:27:14;99359.97;;;23.51;58.95
25610;BME280;13479;49.044;8.716;2023-05-08T11:29:40;99359.97;;;23.64;57.98
25610;BME280;13479;49.044;8.716;2023-05-08T11:32:06;99406.69;;;23.80;57.30
25610;BME280;13479;49.044;8.716;2023-05-08T11:34:44;99432.75;;;23.81;56.51
25610;BME280;13479;49.044;8.716;2023-05-08T11:39:43;99414.59;;;23.68;56.45
25610;BME280;13479;49.044;8.716;2023-05-08T11:45:00;99402.91;;;23.87;56.10
25610;BME280;13479;49.044;8.716;2023-05-08T11:47:35;99412.53;;;24.03;55.62
25610;BME280;13479;49.044;8.716;2023-05-08T11:50:01;99429.19;;;24.14;54.33
25610;BME280;13479;49.044;8.716;2023-05-08T11:52:27;99382.66;;;24.17;55.59
25610;BME280;13479;49.044;8.716;2023-05-08T11:54:53;99351.94;;;24.36;56.40
25610;BME280;13479;49.044;8.716;2023-05-08T11:57:18;99411.72;;;24.62;54.65
25610;BME280;13479;49.044;8.716;2023-05-08T11:59:48;99415.28;;;24.62;54.38
25610;BME280;13479;49.044;8.716;2023-05-08T12:02:13;99425.47;;;24.74;54.03
25610;BME280;13479;49.044;8.716;2023-05-08T12:04:45;99429.84;;;24.81;52.96
25610;BME280;13479;49.044;8.716;2023-05-08T12:07:11;99444.41;;;24.94;51.98
25610;BME280;13479;49.044;8.716;2023-05-08T12:09:36;99424.59;;;24.93;52.56
25610;BME280;13479;49.044;8.716;2023-05-08T12:12:02;99406.84;;;24.84;53.23
25610;BME280;13479;49.044;8.716;2023-05-08T12:14:27;99415.03;;;24.77;53.02
25610;BME280;13479;49.044;8.716;2023-05-08T12:16:53;99409.03;;;24.69;53.18
25610;BME280;13479;49.044;8.716;2023-05-08T12:19:18;99419.03;;;24.61;52.95
25610;BME280;13479;49.044;8.716;2023-05-08T12:21:47;99379.06;;;24.36;53.75
25610;BME280;13479;49.044;8.716;2023-05-08T12:24:13;99329.50;;;24.02;55.14
25610;BME280;13479;49.044;8.716;2023-05-08T12:26:38;99287.44;;;23.66;56.01
25610;BME280;13479;49.044;8.716;2023-05-08T12:29:07;99295.00;;;23.24;55.91
25610;BME280;13479;49.044;8.716;2023-05-08T12:31:35;99270.75;;;22.75;58.26
25610;BME280;13479;49.044;8.716;2023-05-08T12:34:02;99254.00;;;22.38;60.21
25610;BME280;13479;49.044;8.716;2023-05-08T12:36:27;99267.44;;;22.11;60.93
25610;BME280;13479;49.044;8.716;2023-05-08T12:39:10;99275.88;;;21.95;61.32
25610;BME280;13479;49.044;8.716;2023-05-08T12:44:20;99278.94;;;21.56;62.89
25610;BME280;13479;49.044;8.716;2023-05-08T12:46:53;99294.28;;;21.49;63.48
25610;BME280;13479;49.044;8.716;2023-05-08T12:49:25;99293.38;;;21.35;64.69
25610;BME280;13479;49.044;8.716;2023-05-08T12:52:00;99297.41;;;21.24;66.15
25610;BME280;13479;49.044;8.716;2023-05-08T12:54:46;99304.44;;;21.19;67.06
25610;BME280;13479;49.044;8.716;2023-05-08T12:57:13;99317.63;;;21.07;68.19
25610;BME280;13479;49.044;8.716;2023-05-08T12:59:40;99336.66;;;20.77;68.63
25610;BME280;13479;49.044;8.716;2023-05-08T13:02:32;99337.97;;;20.51;70.15
25610;BME280;13479;49.044;8.716;2023-05-08T13:04:57;99361.06;;;20.39;70.68
25610;BME280;13479;49.044;8.716;2023-05-08T13:07:23;99357.91;;;20.35;71.88
25610;BME280;13479;49.044;8.716;2023-05-08T13:09:58;99371.09;;;20.30;71.26
25610;BME280;13479;49.044;8.716;2023-05-08T13:12:27;99357.81;;;20.28;70.90
25610;BME280;13479;49.044;8.716;2023-05-08T13:14:53;99392.78;;;20.21;69.86
25610;BME280;13479;49.044;8.716;2023-05-08T13:17:18;99335.41;;;20.13;71.46
25610;BME280;13479;49.044;8.716;2023-05-08T13:19:43;99355.69;;;20.24;71.93
25610;BME280;13479;49.044;8.716;2023-05-08T13:22:08;99402.06;;;20.49;70.16
25610;BME280;13479;49.044;8.716;2023-05-08T13:24:34;99419.91;;;20.50;69.94
25610;BME280;13479;49.044;8.716;2023-05-08T13:26:59;99433.00;;;20.68;69.05
25610;BME280;13479;49.044;8.716;2023-05-08T13:29:24;99447.72;;;20.80;67.15
25610;BME280;13479;49.044;8.716;2023-05-08T13:31:49;99427.41;;;20.85;67.69
25610;BME280;13479;49.044;8.716;2023-05-08T13:34:14;99418.56;;;20.91;67.33
25610;BME280;13479;49.044;8.716;2023-05-08T13:36:40;99426.50;;;21.14;65.27
25610;BME280;13479;49.044;8.716;2023-05-08T13:39:05;99424.00;;;21.12;64.89
25610;BME280;13479;49.044;8.716;2023-05-08T13:41:30;99413.13;;;21.06;64.54
25610;BME280;13479;49.044;8.716;2023-05-08T13:43:55;99382.78;;;21.04;65.73
25610;BME280;13479;49.044;8.716;2023-05-08T13:46:22;99367.75;;;21.16;65.95
25610;BME280;13479;49.044;8.716;2023-05-08T13:48:48;99419.56;;;21.26;64.03
25610;BME280;13479;49.044;8.716;2023-05-08T13:51:13;99405.84;;;21.28;64.39
25610;BME280;13479;49.044;8.716;2023-05-08T13:53:38;99421.44;;;21.26;63.56
25610;BME280;13479;49.044;8.716;2023-05-08T13:56:03;99401.00;;;21.17;63.58
25610;BME280;13479;49.044;8.716;2023-05-08T13:58:29;99383.56;;;21.19;64.22
25610;BME280;13479;49.044;8.716;2023-05-08T14:00:55;99369.22;;;21.19;63.83
25610;BME280;13479;49.044;8.716;2023-05-08T14:03:20;99407.72;;;21.27;63.15
25610;BME280;13479;49.044;8.716;2023-05-08T14:05:48;99402.97;;;21.29;63.14
25610;BME280;13479;49.044;8.716;2023-05-08T14:08:13;99409.66;;;21.34;62.22
25610;BME280;13479;49.044;8.716;2023-05-08T14:10:39;99394.00;;;21.44;62.77
25610;BME280;13479;49.044;8.716;2023-05-08T14:13:04;99390.34;;;21.58;62.79
25610;BME280;13479;49.044;8.716;2023-05-08T14:15:30;99389.19;;;21.68;62.33
25610;BME280;13479;49.044;8.716;2023-05-08T14:17:55;99407.09;;;21.69;61.13
25610;BME280;13479;49.044;8.716;2023-05-08T14:20:20;99394.59;;;21.68;61.64
25610;BME280;13479;49.044;8.716;2023-05-08T14:22:46;99350.75;;;21.66;62.82
25610;BME280;13479;49.044;8.716;2023-05-08T14:25:11;99304.50;;;21.82;63.11
25610;BME280;13479;49.044;8.716;2023-05-08T14:27:37;99336.41;;;22.00;62.47
25610;BME280;13479;49.044;8.716;2023-05-08T14:30:03;99398.88;;;22.12;60.55
25610;BME280;13479;49.044;8.716;2023-05-08T14:32:28;99387.59;;;22.09;61.14
25610;BME280;13479;49.044;8.716;2023-05-08T14:34:53;99375.94;;;22.01;60.86
25610;BME280;13479;49.044;8.716;2023-05-08T14:37:19;99387.66;;;22.15;59.69
25610;BME280;13479;49.044;8.716;2023-05-08T14:39:44;99399.91;;;22.11;59.12
25610;BME280;13479;49.044;8.716;2023-05-08T14:42:10;99370.22;;;21.83;59.87
25610;BME280;13479;49.044;8.716;2023-05-08T14:44:36;99368.81;;;21.65;60.10
25610;BME280;13479;49.044;8.716;2023-05-08T14:47:01;99366.72;;;21.60;59.72
25610;BME280;13479;49.044;8.716;2023-05-08T14:49:27;99364.91;;;21.46;60.31
25610;BME280;13479;49.044;8.716;2023-05-08T14:51:52;99329.34;;;21.42;60.89
25610;BME280;13479;49.044;8.716;2023-05-08T14:54:17;99273.97;;;21.53;61.42
25610;BME280;13479;49.044;8.716;2023-05-08T14:56:42;99278.72;;;21.80;61.15
25610;BME280;13479;49.044;8.716;2023-05-08T14:59:08;99334.91;;;21.91;60.15
25610;BME280;13479;49.044;8.716;2023-05-08T15:01:33;99369.84;;;21.93;59.79
25610;BME280;13479;49.044;8.716;2023-05-08T15:03:59;99359.78;;;21.80;60.05
25610;BME280;13479;49.044;8.716;2023-05-08T15:06:24;99339.94;;;21.66;60.83
25610;BME280;13479;49.044;8.716;2023-05-08T15:08:51;99293.31;;;21.57;61.37
25610;BME280;13479;49.044;8.716;2023-05-08T15:11:16;99260.25;;;21.55;62.00
25610;BME280;13479;49.044;8.716;2023-05-08T15:13:41;99240.06;;;21.51;62.52
25610;BME280;13479;49.044;8.716;2023-05-08T15:16:07;99226.94;;;21.41;62.70
25610;BME280;13479;49.044;8.716;2023-05-08T15:18:32;99243.13;;;21.41;62.71
25610;BME280;13479;49.044;8.716;2023-05-08T15:20:57;99269.22;;;21.34;61.99
25610;BME280;13479;49.044;8.716;2023-05-08T15:23:24;99305.78;;;21.29;61.78
25610;BME280;13479;49.044;8.716;2023-05-08T15:25:49;99275.31;;;21.14;62.73
25610;BME280;13479;49.044;8.716;2023-05-08T15:28:15;99226.72;;;20.86;64.43
25610;BME280;13479;49.044;8.716;2023-05-08T15:30:40;99245.59;;;20.86;64.91
25610;BME280;13479;49.044;8.716;2023-05-08T15:33:05;99258.66;;;20.82;64.96
25610;BME280;13479;49.044;8.716;2023-05-08T15:35:30;99275.69;;;20.67;64.49
25610;BME280;13479;49.044;8.716;2023-05-08T15:37:56;99284.38;;;20.63;64.62
25610;BME280;13479;49.044;8.716;2023-05-08T15:40:21;99272.88;;;20.54;64.71
25610;BME280;13479;49.044;8.716;2023-05-08T15:42:46;99318.16;;;20.44;63.67
25610;BME280;13479;49.044;8.716;2023-05-08T15:45:12;99310.56;;;20.32;64.46
25610;BME280;13479;49.044;8.716;2023-05-08T15:47:37;99292.09;;;20.29;64.23
25610;BME280;13479;49.044;8.716;2023-05-08T15:50:02;99303.91;;;20.28;64.26
25610;BME280;13479;49.044;8.716;2023-05-08T15:52:27;99264.31;;;20.14;65.42
25610;BME280;13479;49.044;8.716;2023-05-08T15:54:53;99274.91;;;20.30;65.14
25610;BME280;13479;49.044;8.716;2023-05-08T15:57:18;99282.41;;;20.35;65.53
25610;BME280;13479;49.044;8.716;2023-05-08T15:59:43;99332.13;;;20.32;64.31
25610;BME280;13479;49.044;8.716;2023-05-08T16:02:09;99309.13;;;20.15;65.34
25610;BME280;13479;49.044;8.716;2023-05-08T16:04:34;99264.91;;;20.09;66.03
25610;BME280;13479;49.044;8.716;2023-05-08T16:07:00;99277.91;;;20.05;65.94
25610;BME280;13479;49.044;8.716;2023-05-08T16:09:26;99293.72;;;20.09;65.80
25610;BME280;13479;49.044;8.716;2023-05-08T16:11:51;99310.78;;;20.16;65.23
25610;BME280;13479;49.044;8.716;2023-05-08T16:14:16;99320.19;;;20.20;65.03
25610;BME280;13479;49.044;8.716;2023-05-08T16:16:42;99358.56;;;20.22;64.68
25610;BME280;13479;49.044;8.716;2023-05-08T16:19:07;99344.25;;;20.21;65.38
25610;BME280;13479;49.044;8.716;2023-05-08T16:21:32;99346.59;;;20.25;65.07
25610;BME280;13479;49.044;8.716;2023-05-08T16:23:58;99329.56;;;20.24;65.50
25610;BME280;13479;49.044;8.716;2023-05-08T16:26:23;99307.09;;;20.17;65.70
25610;BME280;13479;49.044;8.716;2023-05-08T16:28:48;99328.16;;;20.28;65.08
25610;BME280;13479;49.044;8.716;2023-05-08T16:31:14;99325.84;;;20.25;65.21
25610;BME280;13479;49.044;8.716;2023-05-08T16:33:40;99297.22;;;20.24;65.90
25610;BME280;13479;49.044;8.716;2023-05-08T16:36:06;99299.53;;;20.27;65.57
25610;BME280;13479;49.044;8.716;2023-05-08T16:38:31;99308.59;;;20.41;65.37
25610;BME280;13479;49.044;8.716;2023-05-08T16:41:01;99308.81;;;20.40;65.50
25610;BME280;13479;49.044;8.716;2023-05-08T16:43:26;99304.25;;;20.40;65.57
25610;BME280;13479;49.044;8.716;2023-05-08T16:45:52;99296.72;;;20.35;65.86
25610;BME280;13479;49.044;8.716;2023-05-08T16:48:17;99281.56;;;20.34;66.13
25610;BME280;13479;49.044;8.716;2023-05-08T16:50:42;99301.75;;;20.39;65.67
25610;BME280;13479;49.044;8.716;2023-05-08T16:53:08;99303.03;;;20.43;65.51
25610;BME280;13479;49.044;8.716;2023-05-08T16:55:33;99335.41;;;20.43;65.26
25610;BME280;13479;49.044;8.716;2023-05-08T16:57:58;99328.22;;;20.50;65.11
25610;BME280;13479;49.044;8.716;2023-05-08T17:00:23;99329.88;;;20.51;65.50
25610;BME280;13479;49.044;8.716;2023-05-08T17:02:49;99340.16;;;20.41;65.37
25610;BME280;13479;49.044;8.716;2023-05-08T17:05:15;99324.69;;;20.34;65.71
25610;BME280;13479;49.044;8.716;2023-05-08T17:07:40;99293.28;;;20.27;66.10
25610;BME280;13479;49.044;8.716;2023-05-08T17:10:06;99312.06;;;20.35;65.49
25610;BME280;13479;49.044;8.716;2023-05-08T17:12:32;99301.94;;;20.22;66.15
25610;BME280;13479;49.044;8.716;2023-05-08T17:14:57;99274.38;;;20.05;67.01
25610;BME280;13479;49.044;8.716;2023-05-08T17:17:22;99281.00;;;19.87;67.71
25610;BME280;13479;49.044;8.716;2023-05-08T17:19:48;99289.81;;;19.81;68.09
25610;BME280;13479;49.044;8.716;2023-05-08T17:22:13;99309.03;;;19.78;68.46
25610;BME280;13479;49.044;8.716;2023-05-08T17:24:38;99318.59;;;19.81;68.56